createdAt,value
2022-11-08T00:00:44.044Z,109.82
2022-11-08T00:03:10.889Z,110.24
2022-11-08T00:05:56.441Z,110.43
2022-11-08T00:08:41.769Z,110.59
2022-11-08T00:11:27.096Z,110.56
2022-11-08T00:13:59.986Z,110.67
2022-11-08T00:16:27.777Z,110.70
2022-11-08T00:18:54.549Z,110.96
2022-11-08T00:21:21.135Z,111.08
2022-11-08T00:23:47.922Z,110.66
2022-11-08T00:26:14.691Z,110.64
2022-11-08T00:28:41.398Z,110.55
2022-11-08T00:31:08.250Z,110.53
2022-11-08T00:33:35.026Z,110.58
2022-11-08T00:36:02.731Z,110.61
2022-11-08T00:38:29.703Z,110.24
2022-11-08T00:40:56.324Z,110.58
2022-11-08T00:43:22.947Z,110.72
2022-11-08T00:45:49.672Z,110.94
2022-11-08T00:48:16.561Z,110.98
2022-11-08T00:50:43.468Z,110.98
2022-11-08T00:53:10.252Z,111.04
2022-11-08T00:55:36.875Z,111.06
2022-11-08T00:58:03.700Z,110.91
2022-11-08T01:00:31.235Z,110.79
2022-11-08T01:03:16.434Z,110.88
2022-11-08T01:05:43.124Z,110.78
2022-11-08T01:08:10.349Z,111.08
2022-11-08T01:10:37.617Z,110.84
2022-11-08T01:13:04.318Z,111.20
2022-11-08T01:15:38.587Z,111.06
2022-11-08T01:18:05.559Z,110.87
2022-11-08T01:20:33.050Z,110.91
2022-11-08T01:23:00.946Z,110.71
2022-11-08T01:25:27.661Z,110.82
2022-11-08T01:27:54.353Z,110.58
2022-11-08T01:30:21.225Z,110.55
2022-11-08T01:32:47.943Z,110.63
2022-11-08T01:35:14.686Z,110.65
2022-11-08T01:37:41.424Z,110.81
2022-11-08T01:40:08.934Z,110.81
2022-11-08T01:42:35.678Z,110.61
2022-11-08T01:45:05.474Z,110.61
2022-11-08T01:47:32.260Z,110.82
2022-11-08T01:50:09.690Z,110.78
2022-11-08T01:52:41.986Z,110.78
2022-11-08T01:55:20.922Z,111.28
2022-11-08T01:58:14.132Z,112.29
2022-11-08T02:00:41.025Z,113.09
2022-11-08T02:03:12.403Z,113.03
2022-11-08T02:05:39.985Z,113.08
2022-11-08T02:08:10.161Z,113.44
2022-11-08T02:10:39.914Z,113.01
2022-11-08T02:13:16.903Z,112.84
2022-11-08T02:15:43.952Z,113.06
2022-11-08T02:18:11.679Z,112.86
2022-11-08T02:20:48.024Z,112.64
2022-11-08T02:23:26.603Z,112.57
2022-11-08T02:25:53.756Z,112.70
2022-11-08T02:28:21.038Z,112.38
2022-11-08T02:30:47.850Z,111.96
2022-11-08T02:33:20.505Z,111.84
2022-11-08T02:35:50.301Z,111.83
2022-11-08T02:38:18.064Z,111.51
2022-11-08T02:40:52.828Z,111.67
2022-11-08T02:43:19.928Z,112.03
2022-11-08T02:45:47.374Z,111.78
2022-11-08T02:48:16.382Z,111.71
2022-11-08T02:50:43.903Z,111.74
2022-11-08T02:53:11.304Z,111.38
2022-11-08T02:55:38.480Z,111.43
2022-11-08T02:58:05.337Z,111.78
2022-11-08T03:00:32.535Z,111.49
2022-11-08T03:02:59.518Z,111.52
2022-11-08T03:05:27.748Z,111.63
2022-11-08T03:07:55.276Z,111.44
2022-11-08T03:10:26.267Z,111.48
2022-11-08T03:13:03.856Z,111.32
2022-11-08T03:15:30.790Z,111.29
2022-11-08T03:17:58.463Z,111.16
2022-11-08T03:20:31.141Z,111.58
2022-11-08T03:23:00.849Z,111.52
2022-11-08T03:25:27.957Z,111.57
2022-11-08T03:27:54.571Z,111.46
2022-11-08T03:30:21.842Z,111.42
2022-11-08T03:32:49.931Z,111.25
2022-11-08T03:35:16.846Z,111.30
2022-11-08T03:37:53.481Z,111.53
2022-11-08T03:40:21.432Z,111.37
2022-11-08T03:42:48.702Z,111.32
2022-11-08T03:45:16.176Z,111.13
2022-11-08T03:47:44.383Z,111.32
2022-11-08T03:50:13.583Z,111.07
2022-11-08T03:52:46.081Z,111.20
2022-11-08T03:55:13.615Z,111.17
2022-11-08T03:57:41.083Z,111.19
2022-11-08T04:00:09.942Z,111.18
2022-11-08T04:02:36.869Z,111.04
2022-11-08T04:05:03.829Z,111.37
2022-11-08T04:07:30.555Z,111.07
2022-11-08T04:09:57.450Z,111.14
2022-11-08T04:12:42.750Z,110.86
2022-11-08T04:15:16.542Z,111.03
2022-11-08T04:18:02.139Z,111.14
2022-11-08T04:20:47.412Z,111.19
2022-11-08T04:23:15.112Z,111.02
2022-11-08T04:25:42.088Z,111.15
2022-11-08T04:28:09.137Z,111.30
2022-11-08T04:30:35.968Z,111.39
2022-11-08T04:33:04.114Z,111.03
2022-11-08T04:35:31.827Z,111.43
2022-11-08T04:38:00.227Z,111.50
2022-11-08T04:40:27.612Z,111.65
2022-11-08T04:42:54.247Z,111.42
2022-11-08T04:45:21.117Z,111.66
2022-11-08T04:47:48.711Z,111.87
2022-11-08T04:50:16.148Z,112.14
2022-11-08T04:52:43.045Z,112.37
2022-11-08T04:55:09.782Z,112.42
2022-11-08T04:57:36.462Z,112.54
2022-11-08T05:00:04.201Z,112.55
2022-11-08T05:02:31.068Z,112.55
2022-11-08T05:04:57.857Z,112.90
2022-11-08T05:07:24.730Z,113.01
2022-11-08T05:09:51.466Z,113.30
2022-11-08T05:12:18.170Z,113.14
2022-11-08T05:14:44.784Z,113.30
2022-11-08T05:17:13.767Z,113.42
2022-11-08T05:19:59.060Z,113.39
2022-11-08T05:22:45.345Z,113.36
2022-11-08T05:25:12.032Z,113.77
2022-11-08T05:27:38.765Z,113.97
2022-11-08T05:30:06.165Z,114.05
2022-11-08T05:32:32.901Z,114.00
2022-11-08T05:34:59.530Z,114.39
2022-11-08T05:37:26.238Z,114.36
2022-11-08T05:39:52.836Z,114.46
2022-11-08T05:42:19.485Z,114.48
2022-11-08T05:44:46.165Z,114.75
2022-11-08T05:47:12.971Z,114.48
2022-11-08T05:49:39.700Z,114.45
2022-11-08T05:52:06.545Z,114.37
2022-11-08T05:54:33.283Z,114.32
2022-11-08T05:56:59.988Z,114.38
2022-11-08T05:59:26.603Z,114.38
2022-11-08T06:01:53.281Z,114.62
2022-11-08T06:04:20.216Z,114.54
2022-11-08T06:06:50.027Z,114.65
2022-11-08T06:09:16.742Z,114.53
2022-11-08T06:11:43.443Z,114.86
2022-11-08T06:14:10.203Z,114.99
2022-11-08T06:16:36.922Z,114.98
2022-11-08T06:19:03.684Z,114.86
2022-11-08T06:21:30.344Z,114.77
2022-11-08T06:23:57.015Z,114.96
2022-11-08T06:26:24.515Z,114.90
2022-11-08T06:28:51.414Z,114.83
2022-11-08T06:31:18.401Z,114.78
2022-11-08T06:33:45.488Z,114.80
2022-11-08T06:36:12.275Z,114.89
2022-11-08T06:38:39.036Z,114.96
2022-11-08T06:41:05.824Z,115.00
2022-11-08T06:43:32.606Z,115.05
2022-11-08T06:46:02.657Z,115.32
2022-11-08T06:48:35.090Z,115.41
2022-11-08T06:51:03.667Z,115.12
2022-11-08T06:53:30.367Z,114.94
2022-11-08T06:55:59.750Z,115.06
2022-11-08T06:58:26.415Z,115.05
2022-11-08T07:00:53.203Z,114.90
2022-11-08T07:03:20.258Z,115.10
2022-11-08T07:05:47.156Z,115.15
2022-11-08T07:08:15.227Z,114.75
2022-11-08T07:10:42.068Z,114.64
2022-11-08T07:13:11.785Z,114.54
2022-11-08T07:15:38.631Z,114.41
2022-11-08T07:18:12.354Z,114.00
2022-11-08T07:20:39.868Z,113.88
2022-11-08T07:23:07.462Z,113.94
2022-11-08T07:25:34.240Z,114.03
2022-11-08T07:28:05.508Z,113.58
2022-11-08T07:30:33.536Z,113.46
2022-11-08T07:33:00.216Z,113.19
2022-11-08T07:35:28.084Z,112.98
2022-11-08T07:37:55.348Z,112.95
2022-11-08T07:40:22.439Z,112.43
2022-11-08T07:43:10.503Z,112.07
2022-11-08T07:45:35.856Z,111.89
2022-11-08T07:48:09.782Z,111.41
2022-11-08T07:50:39.248Z,111.03
2022-11-08T07:53:06.012Z,110.39
2022-11-08T07:55:35.286Z,109.80
2022-11-08T07:58:02.252Z,108.88
2022-11-08T08:00:33.731Z,108.13
2022-11-08T08:03:01.819Z,107.28
2022-11-08T08:05:30.437Z,106.18
2022-11-08T08:08:01.982Z,106.40
2022-11-08T08:10:29.962Z,105.56
2022-11-08T08:12:57.160Z,105.70
2022-11-08T08:15:24.523Z,104.72
2022-11-08T08:17:51.438Z,105.50
2022-11-08T08:20:18.488Z,104.84
2022-11-08T08:22:46.177Z,105.01
2022-11-08T08:25:13.444Z,104.32
2022-11-08T08:27:40.446Z,103.63
2022-11-08T08:30:07.851Z,103.57
2022-11-08T08:32:34.761Z,103.10
2022-11-08T08:35:01.548Z,103.14
2022-11-08T08:37:28.463Z,102.60
2022-11-08T08:39:55.057Z,102.00
2022-11-08T08:42:21.788Z,101.90
2022-11-08T08:44:48.451Z,101.15
2022-11-08T08:47:15.168Z,100.03
2022-11-08T08:49:41.913Z,100.00
2022-11-08T08:52:08.763Z,98.43
2022-11-08T08:54:35.460Z,97.45
2022-11-08T08:57:02.288Z,95.30
2022-11-08T09:02:17.581Z,93.83
2022-11-08T09:04:44.361Z,94.94
2022-11-08T09:07:11.174Z,94.38
2022-11-08T09:09:38.078Z,92.68
2022-11-08T09:12:07.956Z,92.21
2022-11-08T09:14:36.995Z,91.47
2022-11-08T09:17:03.741Z,91.87
2022-11-08T09:19:30.557Z,89.84
2022-11-08T09:21:57.341Z,88.55
2022-11-08T09:24:24.145Z,89.79
2022-11-08T09:26:50.852Z,89.41
2022-11-08T09:29:17.697Z,85.28
2022-11-08T09:31:44.403Z,86.38
2022-11-08T09:34:11.250Z,85.00
2022-11-08T09:36:37.931Z,86.23
2022-11-08T09:39:04.594Z,87.23
2022-11-08T09:41:51.510Z,85.30
2022-11-08T09:44:51.295Z,84.67
2022-11-08T09:47:25.907Z,88.26
2022-11-08T09:50:04.641Z,88.17
2022-11-08T09:52:33.779Z,87.09
2022-11-08T09:55:19.437Z,86.45
2022-11-08T09:58:24.970Z,84.40
2022-11-08T10:00:53.170Z,83.26
2022-11-08T10:03:24.115Z,84.02
2022-11-08T10:05:56.687Z,84.88
2022-11-08T10:08:40.784Z,83.21
2022-11-08T10:11:35.246Z,84.12
2022-11-08T10:14:34.080Z,83.85
2022-11-08T10:17:25.272Z,84.23
2022-11-08T10:20:35.330Z,83.01
2022-11-08T10:23:10.671Z,85.45
2022-11-08T10:25:45.329Z,85.16
2022-11-08T10:28:17.119Z,84.91
2022-11-08T10:30:48.154Z,84.64
2022-11-08T10:33:32.553Z,83.45
2022-11-08T10:36:09.530Z,81.55
2022-11-08T10:38:44.862Z,80.64
2022-11-08T10:41:41.037Z,81.81
2022-11-08T10:44:21.014Z,81.47
2022-11-08T10:46:58.216Z,80.40
2022-11-08T10:49:52.294Z,79.96
2022-11-08T10:52:20.721Z,77.26
2022-11-08T10:54:53.035Z,73.57
2022-11-08T10:57:31.887Z,73.40
2022-11-08T11:00:20.667Z,68.65
2022-11-08T11:02:52.677Z,71.06
2022-11-08T11:05:27.246Z,72.14
2022-11-08T11:07:57.665Z,70.02
2022-11-08T11:10:47.939Z,71.10
2022-11-08T11:13:22.555Z,69.81
2022-11-08T11:15:59.004Z,69.26
2022-11-08T11:18:32.765Z,73.79
2022-11-08T11:21:05.850Z,75.89
2022-11-08T11:23:51.387Z,78.68
2022-11-08T11:26:30.034Z,78.66
2022-11-08T11:28:59.788Z,79.71
2022-11-08T11:31:26.429Z,78.05
2022-11-08T11:33:53.163Z,79.30
2022-11-08T11:36:24.643Z,78.33
2022-11-08T11:39:04.837Z,76.45
2022-11-08T11:41:40.017Z,76.29
2022-11-08T11:44:17.116Z,75.31
2022-11-08T11:46:50.781Z,76.44
2022-11-08T11:49:21.079Z,74.33
2022-11-08T11:51:51.208Z,78.12
2022-11-08T11:54:18.000Z,78.09
2022-11-08T11:57:03.381Z,77.76
2022-11-08T11:59:45.572Z,79.61
2022-11-08T12:02:31.172Z,79.08
2022-11-08T12:05:16.018Z,79.56
2022-11-08T12:07:58.442Z,80.31
2022-11-08T12:10:54.727Z,80.67
2022-11-08T12:13:56.357Z,79.65
2022-11-08T12:16:34.281Z,78.82
2022-11-08T12:19:10.757Z,78.90
2022-11-08T12:21:57.464Z,78.27
2022-11-08T12:24:44.156Z,78.56
2022-11-08T12:27:16.764Z,79.55
2022-11-08T12:30:02.220Z,80.10
2022-11-08T12:32:50.386Z,81.26
2022-11-08T12:35:38.853Z,81.61
2022-11-08T12:38:30.684Z,81.84
2022-11-08T12:41:20.866Z,82.12
2022-11-08T12:43:59.716Z,83.78
2022-11-08T12:46:31.847Z,83.00
2022-11-08T12:49:08.314Z,83.99
2022-11-08T12:51:46.639Z,83.19
2022-11-08T12:54:33.231Z,83.58
2022-11-08T12:57:03.488Z,83.50
2022-11-08T12:59:46.681Z,84.00
2022-11-08T13:02:27.611Z,84.76
2022-11-08T13:05:13.144Z,85.13
2022-11-08T13:08:05.284Z,84.89
2022-11-08T13:10:34.778Z,85.64
2022-11-08T13:13:19.710Z,85.89
2022-11-08T13:16:21.585Z,86.06
2022-11-08T13:18:53.945Z,85.36
2022-11-08T13:21:38.961Z,85.75
2022-11-08T13:24:14.242Z,86.06
2022-11-08T13:26:55.852Z,85.93
2022-11-08T13:29:27.384Z,85.75
2022-11-08T13:31:57.037Z,85.29
2022-11-08T13:34:26.524Z,85.23
2022-11-08T13:37:07.240Z,85.77
2022-11-08T13:39:45.666Z,85.72
2022-11-08T13:42:15.679Z,86.01
2022-11-08T13:44:54.539Z,87.24
2022-11-08T13:47:33.353Z,87.69
2022-11-08T13:50:31.736Z,88.15
2022-11-08T13:53:07.917Z,88.73
2022-11-08T13:55:43.738Z,89.20
2022-11-08T13:58:40.006Z,89.55
2022-11-08T14:01:37.601Z,90.10
2022-11-08T14:04:27.106Z,90.20
2022-11-08T14:07:09.036Z,90.10
2022-11-08T14:09:51.735Z,89.79
2022-11-08T14:12:27.813Z,90.82
2022-11-08T14:15:24.424Z,90.23
2022-11-08T14:17:51.068Z,90.61
2022-11-08T14:20:29.733Z,91.20
2022-11-08T14:22:58.154Z,90.69
2022-11-08T14:25:29.951Z,91.21
2022-11-08T14:27:57.266Z,91.39
2022-11-08T14:30:24.350Z,91.64
2022-11-08T14:33:18.001Z,91.85
2022-11-08T14:35:59.139Z,92.18
2022-11-08T14:38:28.270Z,92.41
2022-11-08T14:41:01.256Z,92.60
2022-11-08T14:43:29.164Z,92.65
2022-11-08T14:45:58.247Z,92.75
2022-11-08T14:48:29.273Z,93.11
2022-11-08T14:51:03.675Z,92.83
2022-11-08T14:53:32.718Z,93.10
2022-11-08T14:56:18.032Z,93.39
2022-11-08T14:58:45.971Z,93.25
2022-11-08T15:01:15.564Z,93.40
2022-11-08T15:03:51.447Z,94.48
2022-11-08T15:06:18.636Z,94.24
2022-11-08T15:08:46.953Z,94.44
2022-11-08T15:11:28.447Z,94.44
2022-11-08T15:13:59.337Z,94.63
2022-11-08T15:16:26.951Z,94.85
2022-11-08T15:18:53.744Z,95.13
2022-11-08T15:21:30.887Z,95.36
2022-11-08T15:24:15.023Z,95.18
2022-11-08T15:26:59.806Z,95.31
2022-11-08T15:29:26.670Z,95.10
2022-11-08T15:32:01.160Z,95.41
2022-11-08T15:34:38.745Z,95.49
2022-11-08T15:37:36.447Z,95.92
2022-11-08T15:40:16.675Z,96.06
2022-11-08T15:42:46.199Z,96.17
2022-11-08T15:45:12.826Z,96.23
2022-11-08T15:47:44.163Z,96.10
2022-11-08T15:50:15.602Z,96.27
2022-11-08T15:52:42.717Z,95.97
2022-11-08T15:55:14.646Z,95.78
2022-11-08T15:57:43.059Z,95.64
2022-11-08T16:00:31.879Z,95.79
2022-11-08T16:02:59.215Z,95.59
2022-11-08T16:05:28.509Z,95.55
2022-11-08T16:07:55.823Z,95.53
2022-11-08T16:10:40.642Z,95.72
2022-11-08T16:13:18.769Z,95.80
2022-11-08T16:15:46.005Z,95.91
2022-11-08T16:18:13.037Z,96.20
2022-11-08T16:20:40.141Z,96.61
2022-11-08T16:23:09.280Z,96.84
2022-11-08T16:25:42.537Z,96.93
2022-11-08T16:28:35.463Z,97.29
2022-11-08T16:31:03.971Z,97.13
2022-11-08T16:33:32.230Z,96.77
2022-11-08T16:36:01.568Z,96.81
2022-11-08T16:38:33.439Z,96.90
2022-11-08T16:41:00.191Z,97.32
2022-11-08T16:43:27.081Z,97.16
2022-11-08T16:46:09.956Z,96.94
2022-11-08T16:48:38.927Z,97.18
2022-11-08T16:51:12.839Z,97.36
2022-11-08T16:53:39.596Z,96.58
2022-11-08T16:56:06.288Z,96.46
2022-11-08T16:58:33.045Z,96.24
2022-11-08T17:00:59.774Z,96.06
2022-11-08T17:03:30.826Z,96.17
2022-11-08T17:05:57.836Z,95.88
2022-11-08T17:08:25.078Z,95.95
2022-11-08T17:10:52.770Z,95.43
2022-11-08T17:13:21.159Z,94.90
2022-11-08T17:15:49.340Z,95.01
2022-11-08T17:18:19.121Z,94.65
2022-11-08T17:20:46.258Z,94.43
2022-11-08T17:23:13.088Z,94.05
2022-11-08T17:25:43.053Z,93.95
2022-11-08T17:28:12.116Z,93.76
2022-11-08T17:30:44.195Z,93.60
2022-11-08T17:33:12.720Z,92.98
2022-11-08T17:35:42.872Z,92.88
2022-11-08T17:38:12.207Z,92.80
2022-11-08T17:40:39.128Z,92.89
2022-11-08T17:43:06.073Z,92.96
2022-11-08T17:45:32.935Z,93.28
2022-11-08T17:47:59.640Z,93.09
2022-11-08T17:50:26.429Z,93.26
2022-11-08T17:52:54.825Z,92.92
2022-11-08T17:55:21.727Z,92.64
2022-11-08T17:57:48.403Z,92.43
2022-11-08T18:00:16.389Z,92.43
2022-11-08T18:02:43.306Z,91.78
2022-11-08T18:05:10.122Z,91.99
2022-11-08T18:07:38.438Z,91.95
2022-11-08T18:10:07.004Z,91.02
2022-11-08T18:12:36.991Z,91.38
2022-11-08T18:15:05.153Z,90.99
2022-11-08T18:17:31.990Z,90.66
2022-11-08T18:19:58.758Z,90.36
2022-11-08T18:22:25.464Z,90.14
2022-11-08T18:24:52.141Z,90.12
2022-11-08T18:27:18.980Z,89.48
2022-11-08T18:29:45.631Z,89.54
2022-11-08T18:32:12.425Z,89.41
2022-11-08T18:34:39.155Z,89.54
2022-11-08T18:37:05.807Z,89.85
2022-11-08T18:39:32.705Z,89.28
2022-11-08T18:41:59.645Z,89.91
2022-11-08T18:44:26.344Z,89.85
2022-11-08T18:46:53.287Z,89.63
2022-11-08T18:49:20.076Z,89.90
2022-11-08T18:51:51.930Z,89.95
2022-11-08T18:54:18.898Z,88.93
2022-11-08T18:56:45.594Z,89.22
2022-11-08T18:59:12.386Z,89.21
2022-11-08T19:01:39.213Z,88.89
2022-11-08T19:04:06.052Z,89.52
2022-11-08T19:06:33.870Z,89.57
2022-11-08T19:09:00.631Z,89.54
2022-11-08T19:11:30.399Z,90.01
2022-11-08T19:13:58.271Z,90.24
2022-11-08T19:16:25.319Z,90.74
2022-11-08T19:18:52.159Z,90.82
2022-11-08T19:21:21.666Z,91.02
2022-11-08T19:23:49.441Z,91.10
2022-11-08T19:26:21.694Z,91.58
2022-11-08T19:28:49.478Z,91.34
2022-11-08T19:31:20.815Z,91.79
2022-11-08T19:33:50.104Z,91.13
2022-11-08T19:36:21.218Z,91.06
2022-11-08T19:38:48.293Z,91.21
2022-11-08T19:41:20.743Z,90.73
2022-11-08T19:43:48.744Z,91.06
2022-11-08T19:46:18.691Z,90.98
2022-11-08T19:48:47.233Z,91.14
2022-11-08T19:51:17.143Z,90.67
2022-11-08T19:53:44.944Z,90.75
2022-11-08T19:56:15.932Z,90.52
2022-11-08T19:58:43.465Z,90.69
2022-11-08T20:01:14.119Z,91.01
2022-11-08T20:03:41.232Z,90.64
2022-11-08T20:06:09.236Z,90.35
2022-11-08T20:08:36.573Z,90.45
2022-11-08T20:11:14.564Z,90.81
2022-11-08T20:13:41.913Z,90.04
2022-11-08T20:16:13.844Z,89.79
2022-11-08T20:18:41.112Z,89.79
2022-11-08T20:21:10.068Z,89.68
2022-11-08T20:23:37.151Z,89.21
2022-11-08T20:26:07.648Z,88.92
2022-11-08T20:28:36.299Z,88.99
2022-11-08T20:31:10.858Z,88.68
2022-11-08T20:33:39.569Z,88.59
2022-11-08T20:36:11.832Z,88.23
2022-11-08T20:38:38.948Z,88.22
2022-11-08T20:41:08.336Z,88.20
2022-11-08T20:43:35.063Z,87.87
2022-11-08T20:46:06.118Z,88.17
2022-11-08T20:48:33.497Z,87.86
2022-11-08T20:51:02.382Z,87.93
2022-11-08T20:53:32.233Z,87.51
2022-11-08T20:56:00.820Z,88.15
2022-11-08T20:58:29.234Z,87.48
2022-11-08T21:00:58.631Z,87.89
2022-11-08T21:03:26.921Z,87.55
2022-11-08T21:05:58.969Z,87.80
2022-11-08T21:08:58.616Z,87.61
2022-11-08T21:11:14.089Z,87.09
2022-11-08T21:13:43.003Z,87.32
2022-11-08T21:16:28.687Z,87.96
2022-11-08T21:18:57.545Z,87.09
2022-11-08T21:21:25.018Z,86.83
2022-11-08T21:23:52.002Z,87.21
2022-11-08T21:26:20.106Z,86.98
2022-11-08T21:28:47.525Z,86.82
2022-11-08T21:31:14.615Z,86.06
2022-11-08T21:33:41.748Z,86.22
2022-11-08T21:36:09.279Z,85.87
2022-11-08T21:38:37.640Z,85.55
2022-11-08T21:41:05.923Z,85.20
2022-11-08T21:43:43.033Z,85.86
2022-11-08T21:46:19.030Z,85.04
2022-11-08T21:48:47.082Z,85.59
2022-11-08T21:51:14.028Z,85.61
2022-11-08T21:53:49.328Z,85.42
2022-11-08T21:56:22.752Z,85.46
2022-11-08T21:58:49.527Z,85.06
2022-11-08T22:01:16.794Z,85.41
2022-11-08T22:03:43.842Z,84.89
2022-11-08T22:06:10.595Z,84.93
2022-11-08T22:08:37.349Z,85.40
2022-11-08T22:11:04.446Z,85.36
2022-11-08T22:13:31.124Z,84.77
2022-11-08T22:15:58.015Z,85.22
2022-11-08T22:18:36.687Z,84.86
2022-11-08T22:21:28.594Z,85.02
2022-11-08T22:23:55.339Z,84.41
2022-11-08T22:26:22.063Z,84.55
2022-11-08T22:28:48.796Z,84.81
2022-11-08T22:31:15.676Z,85.09
2022-11-08T22:33:42.549Z,84.98
2022-11-08T22:36:09.630Z,85.11
2022-11-08T22:38:36.247Z,86.06
2022-11-08T22:41:03.206Z,85.26
2022-11-08T22:43:30.721Z,85.90
2022-11-08T22:45:57.430Z,85.35
2022-11-08T22:48:24.327Z,85.16
2022-11-08T22:50:51.256Z,85.20
2022-11-08T22:53:18.524Z,85.71
2022-11-08T22:55:45.491Z,85.67
2022-11-08T22:58:12.639Z,85.61
2022-11-08T23:00:39.377Z,85.15
2022-11-08T23:03:06.501Z,85.45
2022-11-08T23:05:33.147Z,85.55
2022-11-08T23:07:59.848Z,85.66
2022-11-08T23:10:26.832Z,85.42
2022-11-08T23:13:12.259Z,85.50
2022-11-08T23:15:57.565Z,85.54
2022-11-08T23:18:24.342Z,85.95
2022-11-08T23:21:13.206Z,86.57
2022-11-08T23:23:58.350Z,86.35
2022-11-08T23:26:43.719Z,86.44
2022-11-08T23:29:30.027Z,86.63
2022-11-08T23:31:57.052Z,86.85
2022-11-08T23:34:23.845Z,87.20
2022-11-08T23:36:50.605Z,87.31
2022-11-08T23:39:17.273Z,87.38
2022-11-08T23:42:02.545Z,87.35
2022-11-08T23:44:29.581Z,87.56
2022-11-08T23:47:01.161Z,87.50
2022-11-08T23:49:28.092Z,88.29
2022-11-08T23:51:54.985Z,88.09
2022-11-08T23:54:21.790Z,87.88
2022-11-08T23:56:48.584Z,88.44
2022-11-08T23:59:16.035Z,87.81
